AirNav   Air Wisconsin Up To $57,000 Bonus
 
 1113 users online  

MA63 Sherman-Private Airport
Pembroke, Massachusetts, USA

GOING TO PEMBROKE?


FAA INFORMATION EFFECTIVE 25 MARCH 2021

Location

FAA Identifier: MA63
Lat/Long: 42-04-26.3660N 070-47-53.1460W
42-04.439433N 070-47.885767W
42.0739906,-70.7980961
(estimated)
Elevation: 34 ft. / 10 m (estimated)
Variation: 16W (1985)
From city: 1 mile E of PEMBROKE, MA
(APPROX 25 SM S OF BOSTON)
Time zone: UTC -4 (UTC -5 during Standard Time)
Zip code: 02359

Airport Operations

Airport use: Private use. Permission required prior to landing
Activation date: 03/1961
Control tower: no
ARTCC: BOSTON CENTER
FSS: BRIDGEPORT FLIGHT SERVICE STATION
Attendance: UNATNDD
Wind indicator: no
Segmented circle: no

Airport Communications

WX AWOS-3 at GHG (6 nm E): 120.0 (781-837-0555)
WX ASOS at PYM (10 nm S): 135.625 (508-746-8003)
WX ASOS at TAN (15 nm SW): 132.675 (508-824-5005)
WX ASOS at OWD (18 nm NW): 119.95 (781-762-4314)
WX ASOS at BOS (20 nm NW): 135.0 (617-567-5762)

Nearby radio navigation aids

VOR radial/distance  VOR name  Freq  Var
BOSr169/19.0BOSTON VOR/DME112.7016W
LFVr292/34.1MARCONI VOR/DME114.7016W
PVDr067/35.2PROVIDENCE VOR/DME115.6014W

 
NDB name  Hdg/Dist  Freq  Var  ID
STOGE116/15.039715WOW --- .--
PROVINCETOWN287/25.638916WPVC .--. ...- -.-.

Airport Services

Airframe service: NONE
Powerplant service: NONE

Runway Information

Runway N/S

Dimensions: 1500 x 50 ft. / 457 x 15 m
Surface: turf
RUNWAY N  RUNWAY S
Traffic pattern: leftleft
Obstructions: treestrees

Airport Ownership and Management from official FAA records

Ownership: Privately-owned
Owner: ALLEN B. SHERMAN
210 BARKER STREET
PEMBROKE, MA 02359
Phone 617-826-4515

Airport Operational Statistics

Aircraft based on the field: 1
Single engine airplanes: 1
    

Additional Remarks

FOR CD CTC BOSTON APCH AT 603-594-5551.

Instrument Procedures

There are no published instrument procedures at MA63.

Some nearby airports with instrument procedures:

KGHG - Marshfield Municipal Airport - George Harlow Field (6 nm E)
KPYM - Plymouth Municipal Airport (10 nm S)
KTAN - Taunton Municipal Airport - King Field (15 nm SW)
KOWD - Norwood Memorial Airport (18 nm NW)
1B9 - Mansfield Municipal Airport (18 nm W)
KBOS - General Edward Lawrence Logan International Airport (20 nm NW)
 
Loc | Ops | Rwys | IFR | FBO | Links
Com | Nav | Svcs | Stats | Notes
Area around MA63 (Sherman-Private Airport)
 
Road maps at: MapQuest Bing Google
 
Aerial photo
No photo
 
Sectional chart

 
Airport distance calculator
Flying to Sherman-Private Airport? Find the distance to fly.

From to MA63

Sunrise and sunset
Times for 17-Apr-2021
 Local
(UTC-4)
 Zulu
(UTC)
Morning civil twilight05:3109:31
Sunrise06:0110:01
Sunset19:2523:25
Evening civil twilight19:5423:54

Current date and time
Zulu (UTC)  17-Apr-2021 13:47:55
Local (UTC-4)  17-Apr-2021 09:47:55
 
METAR
KGHG 
6nm E 
171335Z AUTO 34009G18KT 300V020 4SM -RA BKN011 BKN019 04/03 A2969 RMK AO2 TSNO
KPYM 
10nm S 
171334Z AUTO 33011KT 6SM -RA BR SCT010 OVC018 04/02 A2968 RMK AO2 P0000 T00390022
KTAN 
15nm SW 
171252Z AUTO VRB06KT 10SM OVC019 05/02 A2968 RMK AO2 SLP052 T00500017
KMQE 
17nm NW 
171251Z AUTO 35009G17KT 310V020 02/01 A2966 RMK AO1 SLP060 T00220011
KOWD 
18nm W 
171253Z 35007KT 10SM OVC019 06/01 A2970 RMK AO2 SLP057 T00560011
TAF
KBOS 
20nm NW 
171120Z 1712/1818 34013G19KT 6SM -RA SCT008 BKN015 FM171600 34011G19KT P6SM VCSH OVC015 FM171800 34011G19KT P6SM OVC020 FM171900 34010G20KT P6SM OVC025 FM172200 35008KT P6SM OVC035 FM180500 29005KT P6SM OVC045
NOTAMs
Click for the latest NOTAMs
NOTAMs are issued by the DoD/FAA and will open in a separate window not controlled by AirNav.

 

 
 

Would you like to see your business listed on this page?

 If your business provides an interesting product or service to pilots, flight crews, aircraft, or users of the Sherman-Private Airport, you should consider listing it here.  To start the listing process, click on the button below
 
Add a business
 

Other Pages about Sherman-Private Airport

Update a link
 
Copyright © AirNav, LLC. All rights reserved. Privacy Policy  Contact